Time;durP1;ratioP1;P1;durP2;ratioP2;P2;SDS_P1;SDS_P2;PMS_P1;PMS_P2;Temp;Humidity;BMP_temperature;BMP_pressure;BME280_temperature;BME280_humidity;BME280_pressure;Samples;Min_cycle;Max_cycle;Signal;HPM_P1;HPM_P2
2022/07/21 00:01:51;;;;;;;33.80;22.23;;;;;;;;;;5026803;28;20029;-55
2022/07/21 00:04:17;;;;;;;33.05;22.60;;;;;;;;;;5028996;28;20037;-55
2022/07/21 00:06:44;;;;;;;35.67;23.10;;;;;;;;;;5028844;28;20099;-56
2022/07/21 00:09:10;;;;;;;37.50;22.73;;;;;;;;;;5026362;28;20030;-56
2022/07/21 00:11:36;;;;;;;34.10;21.83;;;;;;;;;;5024131;28;20025;-56
2022/07/21 00:14:02;;;;;;;34.83;22.27;;;;;;;;;;5029499;28;20029;-56
2022/07/21 00:16:27;;;;;;;39.90;23.60;;;;;;;;;;5023696;28;20479;-56
2022/07/21 00:18:53;;;;;;;36.83;23.02;;;;;;;;;;5026524;28;20064;-56
2022/07/21 00:21:18;;;;;;;32.47;23.38;;;;;;;;;;5025286;28;20068;-56
2022/07/21 00:23:44;;;;;;;41.35;23.17;;;;;;;;;;5026641;28;20025;-56
2022/07/21 00:26:10;;;;;;;38.83;25.08;;;;;;;;;;5028145;28;20036;-56
2022/07/21 00:28:35;;;;;;;35.90;23.45;;;;;;;;;;5027811;28;20087;-56
2022/07/21 00:31:00;;;;;;;36.83;24.38;;;;;;;;;;5021802;28;20030;-56
2022/07/21 00:33:26;;;;;;;36.72;22.90;;;;;;;;;;5021916;28;20381;-56
2022/07/21 00:35:51;;;;;;;38.28;24.35;;;;;;;;;;5024051;28;20021;-57
2022/07/21 00:38:17;;;;;;;35.03;22.98;;;;;;;;;;5022177;28;20040;-57
2022/07/21 00:40:42;;;;;;;38.28;23.65;;;;;;;;;;5027367;28;20022;-56
2022/07/21 00:43:08;;;;;;;33.58;23.38;;;;;;;;;;5030375;28;20029;-56
2022/07/21 00:45:33;;;;;;;33.38;20.83;;;;;;;;;;5030996;28;20017;-56
2022/07/21 00:47:58;;;;;;;33.05;21.25;;;;;;;;;;5029055;28;20033;-56
2022/07/21 00:50:24;;;;;;;30.13;20.88;;;;;;;;;;5027845;28;20032;-56
2022/07/21 00:52:50;;;;;;;31.52;19.92;;;;;;;;;;5027588;28;20087;-56
2022/07/21 00:55:18;;;;;;;31.35;21.20;;;;;;;;;;5028046;28;20033;-56
2022/07/21 00:57:45;;;;;;;27.92;20.00;;;;;;;;;;5024448;28;20046;-56
2022/07/21 01:00:31;;;;;;;37.28;20.83;;;;;;;;;;5024097;28;20045;-56
2022/07/21 01:02:58;;;;;;;29.98;20.58;;;;;;;;;;5025381;28;20033;-56
2022/07/21 01:05:26;;;;;;;32.00;20.38;;;;;;;;;;5027552;28;20030;-56
2022/07/21 01:07:54;;;;;;;27.83;19.83;;;;;;;;;;5023660;28;20091;-56
2022/07/21 01:10:23;;;;;;;33.97;20.40;;;;;;;;;;5026860;28;20033;-56
2022/07/21 01:12:49;;;;;;;36.25;19.55;;;;;;;;;;5023101;28;20111;-56
2022/07/21 01:15:16;;;;;;;29.25;19.45;;;;;;;;;;5028564;28;20037;-56
2022/07/21 01:17:43;;;;;;;29.20;19.13;;;;;;;;;;5023581;28;20499;-56
2022/07/21 01:20:11;;;;;;;30.33;18.98;;;;;;;;;;5021778;28;20065;-56
2022/07/21 01:22:39;;;;;;;31.67;20.15;;;;;;;;;;5021335;28;20025;-56
2022/07/21 01:25:06;;;;;;;30.08;19.38;;;;;;;;;;5025595;28;20061;-57
2022/07/21 01:27:31;;;;;;;28.20;18.42;;;;;;;;;;5027679;28;20095;-56
2022/07/21 01:29:57;;;;;;;29.75;18.83;;;;;;;;;;5027170;28;20665;-56
2022/07/21 01:32:23;;;;;;;25.98;18.40;;;;;;;;;;5021916;28;20030;-56
2022/07/21 01:34:49;;;;;;;28.75;17.88;;;;;;;;;;5023736;28;20075;-56
2022/07/21 01:37:15;;;;;;;29.23;18.48;;;;;;;;;;5022961;28;20061;-56
2022/07/21 01:42:32;;;;;;;26.33;16.73;;;;;;;;;;5012776;28;20295;-56
2022/07/21 01:44:57;;;;;;;25.67;17.17;;;;;;;;;;5029659;28;20036;-56
2022/07/21 01:47:23;;;;;;;26.80;17.48;;;;;;;;;;5028426;28;20034;-56
2022/07/21 01:49:48;;;;;;;31.25;18.45;;;;;;;;;;5028294;28;20498;-57
2022/07/21 01:52:14;;;;;;;26.65;17.92;;;;;;;;;;5026505;28;20040;-56
2022/07/21 01:54:39;;;;;;;25.25;17.88;;;;;;;;;;5027040;28;20051;-56
2022/07/21 01:57:05;;;;;;;26.55;17.60;;;;;;;;;;5025632;28;20052;-56
2022/07/21 01:59:30;;;;;;;26.25;17.95;;;;;;;;;;5028544;28;20025;-56
2022/07/21 02:01:56;;;;;;;25.65;17.40;;;;;;;;;;5028598;28;20128;-56
2022/07/21 02:04:21;;;;;;;27.55;17.02;;;;;;;;;;5024597;28;20037;-56
2022/07/21 02:06:47;;;;;;;25.63;17.63;;;;;;;;;;5023510;28;20045;-57
2022/07/21 02:09:12;;;;;;;24.48;15.38;;;;;;;;;;5023716;28;20042;-57
2022/07/21 02:11:38;;;;;;;25.55;16.33;;;;;;;;;;5023819;28;20021;-57
2022/07/21 02:14:03;;;;;;;25.48;16.88;;;;;;;;;;5024983;28;20405;-56
2022/07/21 02:16:29;;;;;;;24.88;15.63;;;;;;;;;;5023466;28;20087;-57
2022/07/21 02:18:54;;;;;;;24.15;16.00;;;;;;;;;;5021392;28;20029;-57
2022/07/21 02:21:20;;;;;;;22.83;14.85;;;;;;;;;;5021752;28;20117;-57
2022/07/21 02:23:45;;;;;;;20.30;13.73;;;;;;;;;;5032317;28;20383;-57
2022/07/21 02:26:11;;;;;;;20.60;13.23;;;;;;;;;;5023947;28;20033;-57
2022/07/21 02:28:36;;;;;;;17.33;12.02;;;;;;;;;;5028049;28;20120;-57
2022/07/21 02:31:02;;;;;;;18.05;12.70;;;;;;;;;;5022439;28;20037;-57
2022/07/21 02:33:28;;;;;;;20.17;12.88;;;;;;;;;;5030918;28;20467;-57
2022/07/21 02:35:53;;;;;;;19.15;12.60;;;;;;;;;;5030029;28;20033;-57
2022/07/21 02:38:19;;;;;;;19.60;13.25;;;;;;;;;;5024152;28;20476;-56
2022/07/21 02:40:44;;;;;;;19.42;12.93;;;;;;;;;;5020003;28;20029;-57
2022/07/21 02:43:10;;;;;;;22.80;12.77;;;;;;;;;;5028920;28;20060;-57
2022/07/21 02:45:36;;;;;;;16.05;11.50;;;;;;;;;;5033975;28;20433;-57
2022/07/21 02:48:03;;;;;;;17.23;12.27;;;;;;;;;;5030872;28;20032;-56
2022/07/21 02:50:31;;;;;;;16.35;12.35;;;;;;;;;;5030827;28;20136;-57
2022/07/21 02:53:02;;;;;;;18.55;12.73;;;;;;;;;;5030511;28;20561;-56
2022/07/21 02:55:28;;;;;;;20.23;11.88;;;;;;;;;;5030606;28;20033;-57
2022/07/21 02:58:16;;;;;;;18.10;12.27;;;;;;;;;;5028262;28;20032;-57
2022/07/21 03:00:50;;;;;;;19.55;11.95;;;;;;;;;;5027294;28;20568;-57
2022/07/21 03:03:15;;;;;;;16.17;11.25;;;;;;;;;;5030296;28;20032;-56
2022/07/21 03:05:41;;;;;;;22.55;11.90;;;;;;;;;;5029872;28;20383;-56
2022/07/21 03:08:08;;;;;;;20.05;12.43;;;;;;;;;;5025099;28;20034;-57
2022/07/21 03:10:34;;;;;;;17.65;12.05;;;;;;;;;;5026697;28;20047;-56
2022/07/21 03:13:00;;;;;;;19.65;11.63;;;;;;;;;;5030062;28;20372;-56
2022/07/21 03:15:26;;;;;;;19.77;12.90;;;;;;;;;;5028694;28;20045;-56
2022/07/21 03:17:55;;;;;;;18.60;11.70;;;;;;;;;;5026093;28;20071;-56
2022/07/21 03:20:28;;;;;;;18.33;12.25;;;;;;;;;;5026389;28;20061;-56
2022/07/21 03:22:54;;;;;;;16.17;12.15;;;;;;;;;;5027777;28;20030;-56
2022/07/21 03:25:20;;;;;;;17.77;12.10;;;;;;;;;;5024787;28;20518;-56
2022/07/21 03:27:46;;;;;;;19.85;12.10;;;;;;;;;;5027851;28;20033;-56
2022/07/21 03:30:13;;;;;;;16.17;11.05;;;;;;;;;;5023779;28;20033;-56
2022/07/21 03:32:38;;;;;;;20.13;12.25;;;;;;;;;;5024266;28;20067;-56
2022/07/21 03:35:05;;;;;;;16.92;11.00;;;;;;;;;;5023713;28;20041;-56
2022/07/21 03:37:31;;;;;;;17.63;10.95;;;;;;;;;;5021275;28;20030;-56
2022/07/21 03:39:56;;;;;;;19.63;11.55;;;;;;;;;;5031438;28;20025;-56
2022/07/21 03:42:22;;;;;;;18.20;11.30;;;;;;;;;;5031247;28;20479;-56
2022/07/21 03:44:47;;;;;;;17.05;11.77;;;;;;;;;;5030719;28;20021;-56
2022/07/21 03:47:12;;;;;;;19.38;10.95;;;;;;;;;;5028950;28;20021;-56
2022/07/21 03:49:38;;;;;;;16.83;10.48;;;;;;;;;;5029724;28;20025;-56
2022/07/21 03:52:04;;;;;;;17.40;11.07;;;;;;;;;;5028188;28;20095;-56
2022/07/21 03:54:29;;;;;;;15.82;10.77;;;;;;;;;;5029861;28;20039;-56
2022/07/21 03:56:54;;;;;;;15.32;10.90;;;;;;;;;;5028741;28;20045;-56
2022/07/21 03:59:20;;;;;;;18.95;11.65;;;;;;;;;;5026377;28;20033;-56
2022/07/21 04:01:45;;;;;;;15.63;10.95;;;;;;;;;;5029215;28;20029;-56
2022/07/21 04:04:11;;;;;;;20.20;11.63;;;;;;;;;;5027825;28;20032;-58
2022/07/21 04:06:36;;;;;;;19.50;12.23;;;;;;;;;;5028163;28;20527;-58
2022/07/21 04:09:03;;;;;;;19.30;12.10;;;;;;;;;;5025811;28;20270;-58
2022/07/21 04:11:30;;;;;;;19.95;11.30;;;;;;;;;;5029366;28;20029;-58
2022/07/21 04:13:55;;;;;;;22.85;12.68;;;;;;;;;;5026709;28;20025;-59
2022/07/21 04:16:21;;;;;;;21.08;12.68;;;;;;;;;;5028005;28;20034;-58
2022/07/21 04:18:46;;;;;;;19.38;12.23;;;;;;;;;;5027748;28;20487;-58
2022/07/21 04:21:11;;;;;;;18.80;12.52;;;;;;;;;;5028302;28;20033;-58
2022/07/21 04:23:37;;;;;;;20.45;13.05;;;;;;;;;;5031015;28;20022;-58
2022/07/21 04:26:02;;;;;;;21.33;12.38;;;;;;;;;;5028332;28;20033;-58
2022/07/21 04:28:28;;;;;;;20.95;12.43;;;;;;;;;;5023133;28;20399;-58
2022/07/21 04:30:53;;;;;;;24.73;13.23;;;;;;;;;;5021325;28;20024;-58
2022/07/21 04:33:19;;;;;;;22.15;13.15;;;;;;;;;;5023116;28;20527;-56
2022/07/21 04:35:44;;;;;;;17.30;12.02;;;;;;;;;;5028887;28;20056;-55
2022/07/21 04:38:10;;;;;;;18.48;11.43;;;;;;;;;;5023932;28;20033;-55
2022/07/21 04:40:36;;;;;;;19.38;12.32;;;;;;;;;;5022805;28;20029;-56
2022/07/21 04:43:02;;;;;;;17.75;11.77;;;;;;;;;;5028374;28;20188;-55
2022/07/21 04:45:27;;;;;;;18.02;11.75;;;;;;;;;;5026100;28;20032;-56
2022/07/21 04:47:54;;;;;;;18.02;12.60;;;;;;;;;;5031442;28;20021;-57
2022/07/21 04:50:23;;;;;;;19.42;13.02;;;;;;;;;;5025962;28;20053;-57
2022/07/21 04:52:49;;;;;;;23.15;13.15;;;;;;;;;;5023820;28;20065;-57
2022/07/21 04:55:16;;;;;;;20.95;13.60;;;;;;;;;;5027556;28;20487;-57
2022/07/21 04:57:44;;;;;;;23.00;13.65;;;;;;;;;;5025835;28;20037;-57
2022/07/21 05:00:12;;;;;;;20.42;13.07;;;;;;;;;;5022448;28;20022;-56
2022/07/21 05:02:38;;;;;;;22.77;13.60;;;;;;;;;;5025343;28;20096;-57
2022/07/21 05:05:05;;;;;;;20.75;12.50;;;;;;;;;;5027445;28;20065;-57
2022/07/21 05:07:31;;;;;;;23.85;13.40;;;;;;;;;;5025042;28;20399;-57
2022/07/21 05:09:58;;;;;;;22.27;13.32;;;;;;;;;;5023023;28;20029;-56
2022/07/21 05:12:24;;;;;;;19.98;13.82;;;;;;;;;;5023159;28;20037;-56
2022/07/21 05:14:49;;;;;;;21.25;13.77;;;;;;;;;;5024937;28;20021;-57
2022/07/21 05:17:15;;;;;;;23.40;13.70;;;;;;;;;;5026535;28;20122;-56
2022/07/21 05:19:42;;;;;;;25.75;13.57;;;;;;;;;;5022636;28;20029;-56
2022/07/21 05:22:07;;;;;;;18.55;12.68;;;;;;;;;;5020460;28;20116;-56
2022/07/21 05:24:33;;;;;;;18.85;13.25;;;;;;;;;;5022464;28;20594;-56
2022/07/21 05:26:58;;;;;;;21.52;13.43;;;;;;;;;;5028103;28;20018;-56
2022/07/21 05:29:24;;;;;;;22.55;12.90;;;;;;;;;;5021421;28;20164;-56
2022/07/21 05:31:49;;;;;;;19.80;13.55;;;;;;;;;;5020410;28;20367;-57
2022/07/21 05:34:14;;;;;;;19.60;13.07;;;;;;;;;;5023783;28;20112;-57
2022/07/21 05:36:40;;;;;;;23.42;12.60;;;;;;;;;;5021900;28;20024;-59
2022/07/21 05:39:05;;;;;;;19.80;13.05;;;;;;;;;;5021975;28;20033;-59
2022/07/21 05:41:31;;;;;;;21.55;13.60;;;;;;;;;;5018401;28;20419;-59
2022/07/21 05:43:56;;;;;;;23.08;13.75;;;;;;;;;;5018601;28;20018;-60
2022/07/21 05:46:21;;;;;;;21.38;13.43;;;;;;;;;;5026901;28;20033;-60
2022/07/21 05:48:47;;;;;;;22.50;14.57;;;;;;;;;;5027195;28;20618;-60
2022/07/21 05:51:12;;;;;;;20.95;14.00;;;;;;;;;;5022572;28;20036;-60
2022/07/21 05:53:38;;;;;;;21.27;13.52;;;;;;;;;;5026721;28;20052;-60
2022/07/21 05:56:03;;;;;;;20.50;13.57;;;;;;;;;;5026148;28;20569;-60
2022/07/21 05:58:29;;;;;;;19.25;13.43;;;;;;;;;;5030333;28;20061;-60
2022/07/21 06:01:12;;;;;;;20.38;14.07;;;;;;;;;;5026017;28;20021;-60
2022/07/21 06:03:39;;;;;;;19.63;13.55;;;;;;;;;;5026724;28;20036;-60
2022/07/21 06:06:05;;;;;;;19.98;13.00;;;;;;;;;;5031766;28;20037;-59
2022/07/21 06:08:31;;;;;;;24.08;15.10;;;;;;;;;;5028889;28;20545;-60
2022/07/21 06:10:56;;;;;;;20.45;14.10;;;;;;;;;;5023069;28;20046;-60
2022/07/21 06:13:22;;;;;;;20.70;13.52;;;;;;;;;;5026054;28;20044;-59
2022/07/21 06:15:47;;;;;;;23.52;14.88;;;;;;;;;;5030636;28;20025;-59
2022/07/21 06:18:13;;;;;;;20.02;13.88;;;;;;;;;;5027988;28;20055;-60
2022/07/21 06:20:40;;;;;;;23.23;13.85;;;;;;;;;;5024642;28;20036;-60
2022/07/21 06:23:05;;;;;;;20.77;13.98;;;;;;;;;;5022142;28;20040;-60
2022/07/21 06:25:31;;;;;;;25.48;13.85;;;;;;;;;;5028491;28;20104;-59
2022/07/21 06:27:56;;;;;;;22.10;13.57;;;;;;;;;;5028766;28;20034;-60
2022/07/21 06:30:21;;;;;;;22.55;14.27;;;;;;;;;;5027905;28;20037;-60
2022/07/21 06:32:47;;;;;;;22.08;14.35;;;;;;;;;;5026099;28;20026;-57
2022/07/21 06:35:12;;;;;;;24.05;14.55;;;;;;;;;;5023526;28;20121;-57
2022/07/21 06:37:38;;;;;;;24.88;14.73;;;;;;;;;;5028595;28;20031;-56
2022/07/21 06:40:04;;;;;;;22.98;13.77;;;;;;;;;;5029386;28;20033;-57
2022/07/21 06:42:30;;;;;;;24.08;14.10;;;;;;;;;;5026605;28;20481;-56
2022/07/21 06:44:55;;;;;;;20.65;13.77;;;;;;;;;;5030139;28;20018;-56
2022/07/21 06:47:20;;;;;;;20.00;14.00;;;;;;;;;;5028308;28;20036;-59
2022/07/21 06:49:46;;;;;;;24.33;14.65;;;;;;;;;;5028525;28;20387;-59
2022/07/21 06:52:11;;;;;;;22.00;13.45;;;;;;;;;;5026904;28;20033;-57
2022/07/21 06:54:37;;;;;;;21.85;14.45;;;;;;;;;;5030428;28;20112;-60
2022/07/21 06:57:03;;;;;;;20.00;14.38;;;;;;;;;;5028642;28;20515;-57
2022/07/21 06:59:28;;;;;;;19.55;14.40;;;;;;;;;;5028650;28;20526;-56
2022/07/21 07:01:53;;;;;;;19.85;13.40;;;;;;;;;;5025121;28;20025;-56
2022/07/21 07:04:19;;;;;;;21.48;14.15;;;;;;;;;;5026226;28;20475;-57
2022/07/21 07:06:44;;;;;;;22.05;13.48;;;;;;;;;;5026574;28;20060;-56
2022/07/21 07:09:10;;;;;;;21.58;13.93;;;;;;;;;;5026534;28;20503;-57
2022/07/21 07:11:35;;;;;;;20.55;13.82;;;;;;;;;;5029055;28;20026;-57
2022/07/21 07:14:01;;;;;;;19.77;13.23;;;;;;;;;;5023751;28;20038;-56
2022/07/21 07:16:26;;;;;;;20.60;13.70;;;;;;;;;;5028849;28;20100;-57
2022/07/21 07:18:51;;;;;;;18.77;13.30;;;;;;;;;;5028558;28;20291;-56
2022/07/21 07:21:17;;;;;;;20.13;14.05;;;;;;;;;;5023900;28;20087;-57
2022/07/21 07:23:42;;;;;;;19.95;13.70;;;;;;;;;;5025602;28;20030;-56
2022/07/21 07:26:08;;;;;;;26.40;14.60;;;;;;;;;;5026606;28;20227;-60
2022/07/21 07:28:34;;;;;;;20.00;14.05;;;;;;;;;;5028055;28;20029;-59
2022/07/21 07:30:59;;;;;;;19.77;13.63;;;;;;;;;;5023610;28;20021;-59
2022/07/21 07:33:25;;;;;;;19.27;13.40;;;;;;;;;;5018847;28;20018;-59
2022/07/21 07:35:51;;;;;;;21.13;14.20;;;;;;;;;;5021184;28;20026;-59
2022/07/21 07:38:17;;;;;;;20.52;13.68;;;;;;;;;;5025468;28;20052;-59
2022/07/21 07:40:42;;;;;;;18.45;13.32;;;;;;;;;;5024109;28;20025;-59
2022/07/21 07:43:08;;;;;;;19.77;14.25;;;;;;;;;;5027875;28;20091;-60
2022/07/21 07:45:37;;;;;;;20.70;13.50;;;;;;;;;;5026214;28;20413;-59
2022/07/21 07:48:03;;;;;;;;;;;;;;;;;;5026517;28;20025;-59
2022/07/21 07:50:29;;;;;;;17.45;12.38;;;;;;;;;;5027805;28;20341;-59
2022/07/21 07:52:54;;;;;;;16.30;11.55;;;;;;;;;;5026226;28;20083;-60
2022/07/21 07:55:20;;;;;;;19.40;12.55;;;;;;;;;;5026072;28;20026;-59
2022/07/21 07:57:45;;;;;;;19.40;12.88;;;;;;;;;;5026052;28;20025;-59
2022/07/21 08:00:14;;;;;;;18.85;12.70;;;;;;;;;;5027063;28;20033;-59
2022/07/21 08:02:40;;;;;;;18.88;11.65;;;;;;;;;;5025783;28;20021;-59
2022/07/21 08:05:08;;;;;;;16.23;11.45;;;;;;;;;;5028612;28;20400;-59
2022/07/21 08:07:34;;;;;;;18.00;12.25;;;;;;;;;;5026740;28;20028;-60
2022/07/21 08:09:59;;;;;;;16.17;10.70;;;;;;;;;;5026206;28;20051;-60
2022/07/21 08:12:25;;;;;;;14.25;10.65;;;;;;;;;;5024031;28;20028;-59
2022/07/21 08:14:50;;;;;;;16.75;11.60;;;;;;;;;;5025327;28;20384;-59
2022/07/21 08:17:16;;;;;;;16.35;11.27;;;;;;;;;;5023880;28;20046;-59
2022/07/21 08:19:43;;;;;;;16.15;11.45;;;;;;;;;;5023358;28;20025;-59
2022/07/21 08:22:08;;;;;;;16.38;11.57;;;;;;;;;;5025046;28;20039;-59
2022/07/21 08:24:34;;;;;;;17.65;11.93;;;;;;;;;;5023814;28;20025;-60
2022/07/21 08:26:59;;;;;;;16.20;11.48;;;;;;;;;;5020772;28;20068;-59
2022/07/21 08:29:25;;;;;;;16.92;11.52;;;;;;;;;;5028382;28;20036;-59
2022/07/21 08:31:50;;;;;;;16.83;11.48;;;;;;;;;;5021659;28;20030;-59
2022/07/21 08:34:15;;;;;;;16.40;11.70;;;;;;;;;;5027764;28;20463;-60
2022/07/21 08:36:41;;;;;;;18.42;12.35;;;;;;;;;;5024020;28;20403;-59
2022/07/21 08:39:06;;;;;;;15.55;11.55;;;;;;;;;;5021775;28;20412;-60
2022/07/21 08:41:32;;;;;;;17.42;11.70;;;;;;;;;;5024325;28;20033;-59
2022/07/21 08:43:57;;;;;;;14.98;11.02;;;;;;;;;;5018560;28;20017;-59
2022/07/21 08:46:23;;;;;;;17.42;12.57;;;;;;;;;;5024881;28;20026;-59
2022/07/21 08:48:50;;;;;;;19.35;11.60;;;;;;;;;;5025688;28;20029;-59
2022/07/21 08:51:16;;;;;;;16.83;11.30;;;;;;;;;;5024848;28;20479;-59
2022/07/21 08:53:45;;;;;;;18.40;11.43;;;;;;;;;;5028040;28;20033;-59
2022/07/21 08:56:11;;;;;;;15.95;11.77;;;;;;;;;;5025590;28;20036;-60
2022/07/21 08:58:37;;;;;;;15.32;10.95;;;;;;;;;;5026745;28;20029;-59
2022/07/21 09:01:03;;;;;;;16.10;11.60;;;;;;;;;;5027466;28;20128;-59
2022/07/21 09:03:32;;;;;;;17.70;11.80;;;;;;;;;;5025474;28;20083;-59
2022/07/21 09:06:15;;;;;;;20.42;12.27;;;;;;;;;;5025166;28;20021;-59
2022/07/21 09:08:51;;;;;;;19.45;10.80;;;;;;;;;;5020371;28;20044;-59
2022/07/21 09:11:21;;;;;;;17.00;11.68;;;;;;;;;;5025455;28;20030;-60
2022/07/21 09:14:07;;;;;;;17.67;11.40;;;;;;;;;;5021764;28;20040;-59
2022/07/21 09:16:44;;;;;;;15.35;10.63;;;;;;;;;;5026136;28;20037;-57
2022/07/21 09:19:15;;;;;;;14.85;11.00;;;;;;;;;;5024514;28;20021;-57
2022/07/21 09:21:41;;;;;;;15.27;11.48;;;;;;;;;;5023602;28;20025;-58
2022/07/21 09:24:33;;;;;;;24.60;11.07;;;;;;;;;;5022860;28;20510;-56
2022/07/21 09:27:15;;;;;;;15.30;11.75;;;;;;;;;;5027017;28;20121;-57
2022/07/21 09:29:43;;;;;;;17.65;11.32;;;;;;;;;;5020347;28;20025;-57
2022/07/21 09:32:34;;;;;;;14.15;11.57;;;;;;;;;;5022688;28;20648;-57
2022/07/21 09:35:10;;;;;;;20.42;10.85;;;;;;;;;;5018820;28;20033;-56
2022/07/21 09:37:37;;;;;;;14.35;11.07;;;;;;;;;;5015131;28;20025;-57
2022/07/21 09:40:07;;;;;;;16.02;10.88;;;;;;;;;;5013479;28;20125;-57
2022/07/21 09:42:51;;;;;;;16.65;11.10;;;;;;;;;;5016473;28;20045;-57
2022/07/21 09:45:18;;;;;;;16.00;11.25;;;;;;;;;;5017386;28;20087;-56
2022/07/21 09:47:45;;;;;;;14.15;10.70;;;;;;;;;;5018845;28;20025;-57
2022/07/21 09:50:13;;;;;;;20.20;10.38;;;;;;;;;;5017241;28;20034;-57
2022/07/21 09:52:41;;;;;;;16.45;10.60;;;;;;;;;;5015300;28;20022;-55
2022/07/21 09:55:09;;;;;;;15.55;10.23;;;;;;;;;;5015522;28;20033;-55
2022/07/21 09:57:36;;;;;;;15.75;11.05;;;;;;;;;;5015437;28;20418;-55
2022/07/21 10:00:07;;;;;;;14.52;11.18;;;;;;;;;;5016048;28;20022;-55
2022/07/21 10:02:33;;;;;;;17.25;11.30;;;;;;;;;;5011103;28;20124;-55
2022/07/21 10:05:14;;;;;;;14.13;10.73;;;;;;;;;;5018108;28;20125;-55
2022/07/21 10:07:47;;;;;;;13.38;10.85;;;;;;;;;;5012959;28;20030;-55
2022/07/21 10:10:13;;;;;;;18.15;11.80;;;;;;;;;;5014080;28;20494;-55
2022/07/21 10:12:39;;;;;;;13.60;10.98;;;;;;;;;;5013745;28;20061;-57
2022/07/21 10:15:05;;;;;;;15.98;10.32;;;;;;;;;;5010972;28;20056;-56
2022/07/21 10:17:31;;;;;;;15.73;11.27;;;;;;;;;;5014525;28;20055;-57
2022/07/21 10:20:10;;;;;;;12.43;10.45;;;;;;;;;;5014950;28;20523;-56
2022/07/21 10:23:10;;;;;;;14.82;11.00;;;;;;;;;;5015983;28;20026;-56
2022/07/21 10:25:36;;;;;;;14.55;10.30;;;;;;;;;;5014541;28;20022;-56
2022/07/21 10:28:11;;;;;;;13.48;10.27;;;;;;;;;;5023238;28;20029;-57
2022/07/21 10:30:47;;;;;;;14.20;10.45;;;;;;;;;;5017976;28;20035;-57
2022/07/21 10:33:14;;;;;;;16.27;10.57;;;;;;;;;;5021310;28;20033;-57
2022/07/21 10:35:47;;;;;;;15.82;9.63;;;;;;;;;;5021289;28;20108;-58
2022/07/21 10:38:34;;;;;;;13.00;9.13;;;;;;;;;;5023323;28;20040;-58
2022/07/21 10:41:02;;;;;;;11.70;9.23;;;;;;;;;;5021681;28;20074;-58
2022/07/21 10:43:27;;;;;;;9.40;8.23;;;;;;;;;;5028966;28;20021;-60
2022/07/21 10:45:54;;;;;;;11.43;8.35;;;;;;;;;;5029454;28;20507;-60
2022/07/21 10:48:41;;;;;;;12.35;8.60;;;;;;;;;;5026534;28;20049;-60
2022/07/21 10:51:12;;;;;;;11.25;9.02;;;;;;;;;;5026745;28;20120;-60
2022/07/21 10:53:39;;;;;;;11.82;9.43;;;;;;;;;;5024877;28;20025;-57
2022/07/21 10:56:05;;;;;;;12.85;9.60;;;;;;;;;;5024930;28;20068;-57
2022/07/21 10:58:33;;;;;;;10.85;9.07;;;;;;;;;;5027970;28;20108;-56
2022/07/21 11:01:26;;;;;;;11.48;8.98;;;;;;;;;;5024746;28;20820;-56
2022/07/21 11:04:08;;;;;;;10.35;8.77;;;;;;;;;;5024691;28;20030;-57
2022/07/21 11:06:34;;;;;;;13.18;8.45;;;;;;;;;;5026491;28;20648;-57
2022/07/21 11:09:03;;;;;;;10.43;7.72;;;;;;;;;;5025625;28;20025;-57
2022/07/21 11:11:36;;;;;;;9.57;7.38;;;;;;;;;;5027167;28;20029;-57
2022/07/21 11:14:08;;;;;;;12.63;8.55;;;;;;;;;;5025025;28;20029;-58
2022/07/21 11:16:56;;;;;;;;;;;;;;;;;;;;;
2022/07/21 11:19:38;;;;;;;8.43;7.55;;;;;;;;;;5027137;28;20033;-56
2022/07/21 11:22:12;;;;;;;11.77;7.57;;;;;;;;;;5020975;28;20471;-56
2022/07/21 11:24:40;;;;;;;15.13;7.80;;;;;;;;;;5027957;28;20082;-56
2022/07/21 11:27:11;;;;;;;9.45;7.07;;;;;;;;;;5028475;28;20124;-57
2022/07/21 11:29:39;;;;;;;9.27;7.70;;;;;;;;;;5024464;28;20407;-57
2022/07/21 11:32:06;;;;;;;9.63;7.65;;;;;;;;;;5029237;28;20036;-57
2022/07/21 11:34:40;;;;;;;9.23;7.45;;;;;;;;;;5031124;28;20029;-57
2022/07/21 11:37:05;;;;;;;8.50;7.50;;;;;;;;;;5030046;28;20509;-56
2022/07/21 11:39:32;;;;;;;9.45;7.57;;;;;;;;;;5023603;28;20041;-56
2022/07/21 11:42:03;;;;;;;8.77;7.47;;;;;;;;;;5027540;28;20100;-57
2022/07/21 11:44:28;;;;;;;9.95;7.65;;;;;;;;;;5027945;28;20033;-56
2022/07/21 11:46:56;;;;;;;8.75;7.15;;;;;;;;;;5027629;28;20022;-58
2022/07/21 11:49:22;;;;;;;9.70;7.40;;;;;;;;;;5024656;28;20041;-57
2022/07/21 11:51:51;;;;;;;7.30;6.50;;;;;;;;;;5025467;28;20021;-57
2022/07/21 11:54:24;;;;;;;8.75;6.72;;;;;;;;;;5022550;28;20026;-57
2022/07/21 11:56:51;;;;;;;9.27;6.63;;;;;;;;;;5018607;28;20030;-57
2022/07/21 11:59:17;;;;;;;7.63;6.82;;;;;;;;;;5015824;28;20030;-57
2022/07/21 12:02:19;;;;;;;9.40;7.10;;;;;;;;;;5015882;28;20026;-57
2022/07/21 12:05:03;;;;;;;7.38;6.35;;;;;;;;;;5015179;28;20034;-57
2022/07/21 12:07:46;;;;;;;8.73;6.60;;;;;;;;;;5014328;28;20101;-57
2022/07/21 12:10:27;;;;;;;7.97;6.90;;;;;;;;;;5016390;28;20044;-58
2022/07/21 12:13:05;;;;;;;8.80;7.22;;;;;;;;;;5018187;28;20055;-57
2022/07/21 12:15:33;;;;;;;8.18;7.25;;;;;;;;;;5019219;28;20048;-57
2022/07/21 12:18:07;;;;;;;12.13;7.68;;;;;;;;;;5018041;28;20084;-56
2022/07/21 12:20:33;;;;;;;9.13;7.15;;;;;;;;;;5014713;28;20029;-57
2022/07/21 12:23:00;;;;;;;10.85;7.20;;;;;;;;;;5018578;28;20077;-57
2022/07/21 12:25:37;;;;;;;10.82;7.38;;;;;;;;;;5019014;28;20036;-57
2022/07/21 12:28:04;;;;;;;7.90;6.97;;;;;;;;;;5013009;28;20469;-57
2022/07/21 12:30:45;;;;;;;9.02;7.32;;;;;;;;;;5021933;28;20132;-60
2022/07/21 12:33:12;;;;;;;8.40;6.97;;;;;;;;;;5017756;28;20037;-64
2022/07/21 12:35:40;;;;;;;9.25;6.95;;;;;;;;;;5018792;28;20032;-66
2022/07/21 12:38:07;;;;;;;8.88;6.72;;;;;;;;;;5010234;28;20034;-65
2022/07/21 12:40:35;;;;;;;11.43;7.00;;;;;;;;;;5015752;28;20037;-58
2022/07/21 12:43:19;;;;;;;7.45;6.75;;;;;;;;;;5012825;28;20031;-61
2022/07/21 12:45:45;;;;;;;8.45;6.78;;;;;;;;;;5022455;28;20117;-61
2022/07/21 12:48:13;;;;;;;7.68;6.55;;;;;;;;;;5010848;28;20160;-59
2022/07/21 12:50:39;;;;;;;12.23;7.30;;;;;;;;;;5016138;28;20026;-57
2022/07/21 12:53:09;;;;;;;7.85;6.75;;;;;;;;;;5021000;28;20064;-57
2022/07/21 12:55:34;;;;;;;9.02;6.90;;;;;;;;;;5027409;28;20053;-57
2022/07/21 12:58:00;;;;;;;9.73;6.93;;;;;;;;;;5023845;28;20111;-57
2022/07/21 13:00:25;;;;;;;13.05;7.78;;;;;;;;;;5025648;28;20033;-57
2022/07/21 13:02:54;;;;;;;8.02;6.70;;;;;;;;;;5030057;28;20033;-58
2022/07/21 13:05:21;;;;;;;12.98;6.57;;;;;;;;;;5027282;28;20021;-57
2022/07/21 13:07:47;;;;;;;8.23;6.53;;;;;;;;;;5023465;28;20052;-58
2022/07/21 13:10:16;;;;;;;9.73;6.35;;;;;;;;;;5024979;28;20402;-58
2022/07/21 13:12:42;;;;;;;10.27;6.85;;;;;;;;;;5029908;28;20037;-59
2022/07/21 13:15:08;;;;;;;7.03;6.05;;;;;;;;;;5029410;28;20034;-58
2022/07/21 13:17:33;;;;;;;6.68;5.90;;;;;;;;;;5025713;28;20033;-57
2022/07/21 13:19:59;;;;;;;9.40;6.38;;;;;;;;;;5023770;28;20032;-57
2022/07/21 13:22:24;;;;;;;8.05;6.18;;;;;;;;;;5021284;28;20104;-57
2022/07/21 13:24:49;;;;;;;7.38;6.45;;;;;;;;;;5023125;28;20112;-57
2022/07/21 13:27:15;;;;;;;7.70;5.30;;;;;;;;;;5028366;28;20036;-62
2022/07/21 13:29:40;;;;;;;12.98;6.28;;;;;;;;;;5020500;28;20033;-56
2022/07/21 13:32:08;;;;;;;13.02;6.85;;;;;;;;;;5028479;28;20065;-57
2022/07/21 13:34:34;;;;;;;11.13;6.40;;;;;;;;;;5029724;28;20112;-57
2022/07/21 13:37:00;;;;;;;7.90;5.70;;;;;;;;;;5027819;28;20575;-57
2022/07/21 13:39:26;;;;;;;8.80;6.38;;;;;;;;;;5024770;28;20130;-57
2022/07/21 13:41:55;;;;;;;6.93;5.35;;;;;;;;;;5027428;28;20100;-57
2022/07/21 13:44:22;;;;;;;24.25;6.00;;;;;;;;;;5033431;28;20059;-57
2022/07/21 13:46:48;;;;;;;12.40;5.70;;;;;;;;;;5027555;28;20025;-56
2022/07/21 13:49:13;;;;;;;6.72;5.00;;;;;;;;;;5023605;28;20034;-57
2022/07/21 13:51:39;;;;;;;5.97;5.13;;;;;;;;;;5025552;28;20108;-57
2022/07/21 13:54:04;;;;;;;6.43;5.65;;;;;;;;;;5027594;28;20479;-60
2022/07/21 13:56:30;;;;;;;8.35;6.20;;;;;;;;;;5024409;28;20021;-60
2022/07/21 13:58:56;;;;;;;9.00;5.82;;;;;;;;;;5025222;28;20553;-60
2022/07/21 14:01:21;;;;;;;6.15;5.53;;;;;;;;;;5025642;28;20033;-60
2022/07/21 14:03:48;;;;;;;7.07;5.50;;;;;;;;;;5029479;28;20403;-59
2022/07/21 14:06:14;;;;;;;7.25;5.10;;;;;;;;;;5024097;28;20030;-60
2022/07/21 14:08:40;;;;;;;6.15;5.40;;;;;;;;;;5025361;28;20029;-60
2022/07/21 14:11:06;;;;;;;6.93;5.03;;;;;;;;;;5021941;28;20047;-60
2022/07/21 14:13:32;;;;;;;6.50;5.60;;;;;;;;;;5025969;28;20484;-60
2022/07/21 14:15:57;;;;;;;7.63;5.10;;;;;;;;;;5027659;28;20025;-60
2022/07/21 14:18:23;;;;;;;6.57;5.40;;;;;;;;;;5023501;28;20541;-60
2022/07/21 14:20:51;;;;;;;7.00;5.88;;;;;;;;;;5028893;28;20047;-60
2022/07/21 14:23:18;;;;;;;;;;;;;;;;;;5025498;28;20558;-60
2022/07/21 14:25:43;;;;;;;6.93;5.45;;;;;;;;;;5027979;28;19923;-60
2022/07/21 14:28:09;;;;;;;6.90;5.63;;;;;;;;;;5022755;28;20037;-61
2022/07/21 14:30:35;;;;;;;6.85;5.55;;;;;;;;;;5024548;28;20407;-61